Time;durP1;ratioP1;P1;durP2;ratioP2;P2;SDS_P1;SDS_P2;PMS_P1;PMS_P2;Temp;Humidity;BMP_temperature;BMP_pressure;BME280_temperature;BME280_humidity;BME280_pressure;Samples;Min_cycle;Max_cycle;Signal;HPM_P1;HPM_P2
2022/04/04 00:00:54;;;;;;;;;;;3.20;84.70;;;;;;5055662;28;20019;-78
2022/04/04 00:03:21;;;;;;;;;;;3.20;84.70;;;;;;5053892;28;19987;-77
2022/04/04 00:05:47;;;;;;;;;;;3.10;84.80;;;;;;5057927;28;19936;-78
2022/04/04 00:08:15;;;;;;;;;;;3.10;84.80;;;;;;5051247;28;19991;-77
2022/04/04 00:10:42;;;;;;;;;;;3.10;84.80;;;;;;5057069;28;19939;-77
2022/04/04 00:13:08;;;;;;;;;;;3.10;84.80;;;;;;5052273;28;19928;-78
2022/04/04 00:15:35;;;;;;;;;;;3.10;84.90;;;;;;5052729;28;19986;-78
2022/04/04 00:18:05;;;;;;;;;;;3.10;84.90;;;;;;5055622;28;19986;-78
2022/04/04 00:20:32;;;;;;;;;;;3.00;84.90;;;;;;5052997;28;19990;-77
2022/04/04 00:22:58;;;;;;;;;;;3.00;84.80;;;;;;5054755;28;20300;-78
2022/04/04 00:25:26;;;;;;;;;;;3.00;84.80;;;;;;5055618;28;19940;-77
2022/04/04 00:27:53;;;;;;;;;;;3.00;84.80;;;;;;5057081;28;19940;-77
2022/04/04 00:30:19;;;;;;;;;;;3.00;84.90;;;;;;5052187;28;19963;-78
2022/04/04 00:32:46;;;;;;;;;;;2.90;84.80;;;;;;5058588;28;20718;-77
2022/04/04 00:35:12;;;;;;;;;;;2.90;84.80;;;;;;5057272;28;20029;-78
2022/04/04 00:37:39;;;;;;;;;;;2.90;84.80;;;;;;5048554;28;19932;-77
2022/04/04 00:40:06;;;;;;;;;;;2.90;84.80;;;;;;5052932;28;20362;-78
2022/04/04 00:42:34;;;;;;;;;;;2.90;84.70;;;;;;5055905;28;20353;-77
2022/04/04 00:45:01;;;;;;;;;;;2.90;84.80;;;;;;5053341;28;19928;-77
2022/04/04 00:47:28;;;;;;;;;;;2.80;84.80;;;;;;5057805;28;20419;-77
2022/04/04 00:49:54;;;;;;;;;;;2.90;84.80;;;;;;5058840;28;19932;-78
2022/04/04 00:52:21;;;;;;;;;;;2.80;84.80;;;;;;5052211;28;20591;-78
2022/04/04 00:54:47;;;;;;;;;;;2.80;84.60;;;;;;5052042;28;19929;-78
2022/04/04 00:57:14;;;;;;;;;;;2.80;84.70;;;;;;5052775;28;20077;-77
2022/04/04 00:59:42;;;;;;;;;;;2.80;84.70;;;;;;5053000;28;19929;-77
2022/04/04 01:02:08;;;;;;;;;;;2.80;84.80;;;;;;5052973;28;20384;-78
2022/04/04 01:04:35;;;;;;;;;;;2.70;84.80;;;;;;5056912;28;19928;-78
2022/04/04 01:07:02;;;;;;;;;;;2.70;85.00;;;;;;5057463;28;19982;-77
2022/04/04 01:09:28;;;;;;;;;;;2.70;85.00;;;;;;5050645;28;20399;-77
2022/04/04 01:12:01;;;;;;;;;;;2.70;85.10;;;;;;5053507;28;19981;-77
2022/04/04 01:14:28;;;;;;;;;;;2.70;85.20;;;;;;5049058;28;19956;-77
2022/04/04 01:16:56;;;;;;;;;;;2.70;85.20;;;;;;5054653;28;19932;-77
2022/04/04 01:19:22;;;;;;;;;;;2.70;85.20;;;;;;5051874;28;19943;-77
2022/04/04 01:21:49;;;;;;;;;;;2.70;85.20;;;;;;5052552;28;19929;-77
2022/04/04 01:24:18;;;;;;;;;;;2.70;85.30;;;;;;5051434;28;20558;-77
2022/04/04 01:26:46;;;;;;;;;;;2.60;85.20;;;;;;5052445;28;20351;-77
2022/04/04 01:29:12;;;;;;;;;;;2.60;85.20;;;;;;5055808;28;20018;-78
2022/04/04 01:31:39;;;;;;;;;;;2.60;85.20;;;;;;5057522;28;19982;-78
2022/04/04 01:34:06;;;;;;;;;;;2.60;85.20;;;;;;5065627;28;19928;-77
2022/04/04 01:36:32;;;;;;;;;;;2.50;85.10;;;;;;5058063;28;19937;-77
2022/04/04 01:38:59;;;;;;;;;;;2.60;85.20;;;;;;5056857;28;20715;-78
2022/04/04 01:41:27;;;;;;;;;;;2.60;85.20;;;;;;5053869;28;19932;-77
2022/04/04 01:43:53;;;;;;;;;;;2.60;85.30;;;;;;5051827;28;19936;-77
2022/04/04 01:46:26;;;;;;;;;;;2.50;85.30;;;;;;5057576;28;19929;-77
2022/04/04 01:48:54;;;;;;;;;;;2.50;85.30;;;;;;5063449;28;19932;-77
2022/04/04 01:51:20;;;;;;;;;;;2.50;85.40;;;;;;5059687;28;19932;-77
2022/04/04 01:53:47;;;;;;;;;;;2.50;85.50;;;;;;5059708;28;19928;-77
2022/04/04 01:56:14;;;;;;;;;;;2.50;85.50;;;;;;5059335;28;19959;-77
2022/04/04 01:58:42;;;;;;;;;;;2.50;85.50;;;;;;5057479;28;19933;-77
2022/04/04 02:01:10;;;;;;;;;;;2.50;85.50;;;;;;5056958;28;19928;-77
2022/04/04 02:03:37;;;;;;;;;;;2.50;85.60;;;;;;5065384;28;19929;-77
2022/04/04 02:06:04;;;;;;;;;;;2.50;85.70;;;;;;5061874;28;19940;-77
2022/04/04 02:08:31;;;;;;;;;;;2.40;85.70;;;;;;5051773;28;20328;-77
2022/04/04 02:10:58;;;;;;;;;;;2.40;85.70;;;;;;5061037;28;19932;-77
2022/04/04 02:13:25;;;;;;;;;;;2.40;85.70;;;;;;5057179;28;19968;-77
2022/04/04 02:15:53;;;;;;;;;;;2.40;85.70;;;;;;5060351;28;19928;-77
2022/04/04 02:18:20;;;;;;;;;;;2.40;85.80;;;;;;5053922;28;19935;-78
2022/04/04 02:20:47;;;;;;;;;;;2.40;85.70;;;;;;5057109;28;20552;-77
2022/04/04 02:23:17;;;;;;;;;;;2.30;85.60;;;;;;5057861;28;19929;-78
2022/04/04 02:25:44;;;;;;;;;;;2.40;85.70;;;;;;5058224;28;20612;-78
2022/04/04 02:28:10;;;;;;;;;;;2.40;85.80;;;;;;5056327;28;19928;-77
2022/04/04 02:30:37;;;;;;;;;;;2.30;85.80;;;;;;5055508;28;19933;-77
2022/04/04 02:33:05;;;;;;;;;;;2.30;85.80;;;;;;5057963;28;20155;-77
2022/04/04 02:35:31;;;;;;;;;;;2.30;85.80;;;;;;5059035;28;19951;-77
2022/04/04 02:37:58;;;;;;;;;;;2.30;86.50;;;;;;5056913;28;20518;-77
2022/04/04 02:40:24;;;;;;;;;;;2.30;85.90;;;;;;5057710;28;19933;-77
2022/04/04 02:42:51;;;;;;;;;;;2.20;85.80;;;;;;5057438;28;19928;-78
2022/04/04 02:45:18;;;;;;;;;;;2.30;85.90;;;;;;5062184;28;19925;-77
2022/04/04 02:47:46;;;;;;;;;;;2.30;85.80;;;;;;5060536;28;19929;-77
2022/04/04 02:50:14;;;;;;;;;;;2.20;85.80;;;;;;5054512;28;19928;-77
2022/04/04 02:52:40;;;;;;;;;;;2.30;86.00;;;;;;5056188;28;20261;-77
2022/04/04 02:57:48;;;;;;;;;;;2.20;86.00;;;;;;5056860;28;20447;-77
2022/04/04 03:00:15;;;;;;;;;;;2.20;85.90;;;;;;5054913;28;19928;-78
2022/04/04 03:02:41;;;;;;;;;;;2.20;86.00;;;;;;5053586;28;19990;-77
2022/04/04 03:05:08;;;;;;;;;;;2.20;86.10;;;;;;5055745;28;19928;-78
2022/04/04 03:07:36;;;;;;;;;;;2.20;86.10;;;;;;5058078;28;19928;-77
2022/04/04 03:10:03;;;;;;;;;;;2.10;86.10;;;;;;5053512;28;19933;-77
2022/04/04 03:12:30;;;;;;;;;;;2.10;86.10;;;;;;5057846;28;19928;-77
2022/04/04 03:14:57;;;;;;;;;;;2.20;86.30;;;;;;5056443;28;19932;-78
2022/04/04 03:17:23;;;;;;;;;;;2.10;86.30;;;;;;5055253;28;19932;-78
2022/04/04 03:19:50;;;;;;;;;;;2.10;86.30;;;;;;5057473;28;19932;-78
2022/04/04 03:22:17;;;;;;;;;;;2.10;86.40;;;;;;5057642;28;20667;-77
2022/04/04 03:24:45;;;;;;;;;;;2.10;86.40;;;;;;5059104;28;20311;-77
2022/04/04 03:27:13;;;;;;;;;;;2.10;86.60;;;;;;5059544;28;19929;-77
2022/04/04 03:29:40;;;;;;;;;;;2.10;86.70;;;;;;5055017;28;19950;-77
2022/04/04 03:32:07;;;;;;;;;;;2.00;86.70;;;;;;5055508;28;19932;-77
2022/04/04 03:34:33;;;;;;;;;;;2.00;86.80;;;;;;5052065;28;20041;-77
2022/04/04 03:37:00;;;;;;;;;;;2.00;86.90;;;;;;5055562;28;19978;-77
2022/04/04 03:39:27;;;;;;;;;;;2.00;86.90;;;;;;5052412;28;19929;-78
2022/04/04 03:41:54;;;;;;;;;;;2.00;87.00;;;;;;5061385;28;19935;-78
2022/04/04 03:44:21;;;;;;;;;;;2.00;87.10;;;;;;5057742;28;19982;-78
2022/04/04 03:46:48;;;;;;;;;;;2.00;87.10;;;;;;5060833;28;20327;-78
2022/04/04 03:49:14;;;;;;;;;;;1.90;87.00;;;;;;5059087;28;19932;-78
2022/04/04 03:51:41;;;;;;;;;;;2.00;87.10;;;;;;5063379;28;19955;-78
2022/04/04 03:54:08;;;;;;;;;;;1.90;87.00;;;;;;5062608;28;19928;-78
2022/04/04 03:56:35;;;;;;;;;;;1.90;86.90;;;;;;5060164;28;20006;-78
2022/04/04 03:59:03;;;;;;;;;;;1.90;86.80;;;;;;5059925;28;19932;-78
2022/04/04 04:01:30;;;;;;;;;;;1.90;86.80;;;;;;5059086;28;19971;-78
2022/04/04 04:03:57;;;;;;;;;;;1.90;86.60;;;;;;5060514;28;19932;-78
2022/04/04 04:06:23;;;;;;;;;;;1.80;86.50;;;;;;5056567;28;20859;-78
2022/04/04 04:08:50;;;;;;;;;;;1.80;86.40;;;;;;5060350;28;19923;-78
2022/04/04 04:11:17;;;;;;;;;;;1.80;86.30;;;;;;5059279;28;19935;-78
2022/04/04 04:13:44;;;;;;;;;;;1.80;86.20;;;;;;5059645;28;20013;-79
2022/04/04 04:16:13;;;;;;;;;;;1.80;86.10;;;;;;5054586;28;19928;-79
2022/04/04 04:18:40;;;;;;;;;;;1.70;86.00;;;;;;5055801;28;20793;-78
2022/04/04 04:21:06;;;;;;;;;;;1.80;85.90;;;;;;5056577;28;19943;-79
2022/04/04 04:23:34;;;;;;;;;;;1.80;85.80;;;;;;5058044;28;19932;-78
2022/04/04 04:26:01;;;;;;;;;;;1.70;85.60;;;;;;5056215;28;19964;-78
2022/04/04 04:28:27;;;;;;;;;;;1.70;85.70;;;;;;5052852;28;19932;-77
2022/04/04 04:30:54;;;;;;;;;;;1.70;85.70;;;;;;5057347;28;19947;-77
2022/04/04 04:33:22;;;;;;;;;;;1.70;85.70;;;;;;5055073;28;19959;-78
2022/04/04 04:35:48;;;;;;;;;;;1.70;85.80;;;;;;5058441;28;19936;-78
2022/04/04 04:38:15;;;;;;;;;;;1.70;85.80;;;;;;5060588;28;19936;-78
2022/04/04 04:40:41;;;;;;;;;;;1.70;85.90;;;;;;5062650;28;20031;-78
2022/04/04 04:43:08;;;;;;;;;;;1.70;85.90;;;;;;5058796;28;19928;-78
2022/04/04 04:45:35;;;;;;;;;;;1.70;85.90;;;;;;5059673;28;20521;-78
2022/04/04 04:48:01;;;;;;;;;;;1.70;86.00;;;;;;5054209;28;19925;-78
2022/04/04 04:50:29;;;;;;;;;;;1.60;85.90;;;;;;5052002;28;20863;-78
2022/04/04 04:52:56;;;;;;;;;;;1.60;86.00;;;;;;5052002;28;19929;-77
2022/04/04 04:55:24;;;;;;;;;;;1.60;86.10;;;;;;5058375;28;19933;-77
2022/04/04 04:57:52;;;;;;;;;;;1.60;86.00;;;;;;5059318;28;19932;-79
2022/04/04 05:00:21;;;;;;;;;;;1.60;86.00;;;;;;5057474;28;19928;-78
2022/04/04 05:03:24;;;;;;;;;;;1.60;85.90;;;;;;5055342;28;20522;-78
2022/04/04 05:05:36;;;;;;;;;;;1.60;85.80;;;;;;5055962;28;19939;-78
2022/04/04 05:08:03;;;;;;;;;;;1.60;85.80;;;;;;5057067;28;20011;-78
2022/04/04 05:10:30;;;;;;;;;;;1.50;85.80;;;;;;5059730;28;19928;-78
2022/04/04 05:12:57;;;;;;;;;;;1.50;85.70;;;;;;5061020;28;19963;-78
2022/04/04 05:15:23;;;;;;;;;;;1.50;85.80;;;;;;5061137;28;20056;-78
2022/04/04 05:17:50;;;;;;;;;;;1.50;85.70;;;;;;5058767;28;19935;-78
2022/04/04 05:20:17;;;;;;;;;;;1.50;85.70;;;;;;5061467;28;19936;-77
2022/04/04 05:22:44;;;;;;;;;;;1.50;85.70;;;;;;5057860;28;19928;-78
2022/04/04 05:25:11;;;;;;;;;;;1.50;85.50;;;;;;5062087;28;19935;-77
2022/04/04 05:27:39;;;;;;;;;;;1.50;85.30;;;;;;5060062;28;19987;-78
2022/04/04 05:30:06;;;;;;;;;;;1.50;84.90;;;;;;5060379;28;19929;-78
2022/04/04 05:32:32;;;;;;;;;;;1.40;84.40;;;;;;5055897;28;19932;-77
2022/04/04 05:34:59;;;;;;;;;;;1.40;84.30;;;;;;5057888;28;19928;-77
2022/04/04 05:37:25;;;;;;;;;;;1.40;84.00;;;;;;5052448;28;19939;-78
2022/04/04 05:39:54;;;;;;;;;;;1.40;83.90;;;;;;5055665;28;20011;-77
2022/04/04 05:42:21;;;;;;;;;;;1.40;83.80;;;;;;5057269;28;19929;-77
2022/04/04 05:44:48;;;;;;;;;;;1.40;83.50;;;;;;5058868;28;19928;-77
2022/04/04 05:47:17;;;;;;;;;;;1.40;83.20;;;;;;5058209;28;19935;-77
2022/04/04 05:49:44;;;;;;;;;;;1.30;81.80;;;;;;5059849;28;19933;-80
2022/04/04 05:52:11;;;;;;;;;;;1.30;81.60;;;;;;5060821;28;19936;-79
2022/04/04 05:54:53;;;;;;;;;;;1.30;81.70;;;;;;5058183;28;19986;-80
2022/04/04 05:57:21;;;;;;;;;;;1.30;82.00;;;;;;5059066;28;19986;-79
2022/04/04 05:59:48;;;;;;;;;;;1.30;82.20;;;;;;5052591;28;19932;-79
2022/04/04 06:02:14;;;;;;;;;;;1.30;82.30;;;;;;5060063;28;19939;-79
2022/04/04 06:04:41;;;;;;;;;;;1.20;82.30;;;;;;5052531;28;20393;-79
2022/04/04 06:07:07;;;;;;;;;;;1.30;82.30;;;;;;5059304;28;19936;-80
2022/04/04 06:09:34;;;;;;;;;;;1.30;82.50;;;;;;5053399;28;20363;-80
2022/04/04 06:12:00;;;;;;;;;;;1.30;82.70;;;;;;5063906;28;19932;-80
2022/04/04 06:14:28;;;;;;;;;;;1.30;82.80;;;;;;5059255;28;19928;-79
2022/04/04 06:16:55;;;;;;;;;;;1.30;82.60;;;;;;5063766;28;20584;-80
2022/04/04 06:19:21;;;;;;;;;;;1.30;82.30;;;;;;5067593;28;19982;-80
2022/04/04 06:21:48;;;;;;;;;;;1.30;82.30;;;;;;5057368;28;19928;-80
2022/04/04 06:24:15;;;;;;;;;;;1.30;82.20;;;;;;5061970;28;19932;-80
2022/04/04 06:26:41;;;;;;;;;;;1.30;82.00;;;;;;5052392;28;20019;-79
2022/04/04 06:29:09;;;;;;;;;;;1.30;82.20;;;;;;5053435;28;19928;-79
2022/04/04 06:31:37;;;;;;;;;;;1.30;82.10;;;;;;5066091;28;19932;-80
2022/04/04 06:34:04;;;;;;;;;;;1.30;81.60;;;;;;5063259;28;20016;-80
2022/04/04 06:36:31;;;;;;;;;;;1.30;81.20;;;;;;5056193;28;20629;-80
2022/04/04 06:38:58;;;;;;;;;;;1.30;81.20;;;;;;5063702;28;19947;-80
2022/04/04 06:41:24;;;;;;;;;;;1.30;81.10;;;;;;5060970;28;20374;-79
2022/04/04 06:43:51;;;;;;;;;;;1.30;81.10;;;;;;5052020;28;19928;-80
2022/04/04 06:46:17;;;;;;;;;;;1.30;81.20;;;;;;5053473;28;19935;-80
2022/04/04 06:48:48;;;;;;;;;;;1.30;81.10;;;;;;5057304;28;19933;-79
2022/04/04 06:51:15;;;;;;;;;;;1.30;81.00;;;;;;5061731;28;19932;-80
2022/04/04 06:53:41;;;;;;;;;;;1.30;80.80;;;;;;5056907;28;20006;-80
2022/04/04 06:56:08;;;;;;;;;;;1.30;80.70;;;;;;5059342;28;20303;-80
2022/04/04 06:58:34;;;;;;;;;;;1.30;80.70;;;;;;5056439;28;20012;-80
2022/04/04 07:01:02;;;;;;;;;;;1.30;80.60;;;;;;5060848;28;20015;-80
2022/04/04 07:03:28;;;;;;;;;;;1.30;80.80;;;;;;5062002;28;20553;-80
2022/04/04 07:05:56;;;;;;;;;;;1.30;80.80;;;;;;5065098;28;19932;-79
2022/04/04 07:08:23;;;;;;;;;;;1.30;80.80;;;;;;5057241;28;19929;-80
2022/04/04 07:10:51;;;;;;;;;;;1.30;80.70;;;;;;5056651;28;19935;-80
2022/04/04 07:13:18;;;;;;;;;;;1.30;80.60;;;;;;5059467;28;19928;-80
2022/04/04 07:15:44;;;;;;;;;;;1.40;80.60;;;;;;5058000;28;20684;-77
2022/04/04 07:18:12;;;;;;;;;;;1.40;80.60;;;;;;5060821;28;19928;-77
2022/04/04 07:20:39;;;;;;;;;;;1.40;80.50;;;;;;5056720;28;19962;-77
2022/04/04 07:23:07;;;;;;;;;;;1.40;80.30;;;;;;5053476;28;19928;-77
2022/04/04 07:25:33;;;;;;;;;;;1.40;80.30;;;;;;5048762;28;19928;-77
2022/04/04 07:28:00;;;;;;;;;;;1.40;80.10;;;;;;5054648;28;19935;-77
2022/04/04 07:30:27;;;;;;;;;;;1.40;80.00;;;;;;5060024;28;19936;-77
2022/04/04 07:32:53;;;;;;;;;;;1.40;80.00;;;;;;5054208;28;19974;-77
2022/04/04 07:35:21;;;;;;;;;;;1.40;80.20;;;;;;5061174;28;20487;-77
2022/04/04 07:37:49;;;;;;;;;;;1.40;80.10;;;;;;5059313;28;19924;-77
2022/04/04 07:40:18;;;;;;;;;;;1.50;80.10;;;;;;5060489;28;19936;-77
2022/04/04 07:42:45;;;;;;;;;;;1.50;79.90;;;;;;5051907;28;19932;-77
2022/04/04 07:45:13;;;;;;;;;;;1.50;80.10;;;;;;5055651;28;19935;-77
2022/04/04 07:47:40;;;;;;;;;;;1.50;80.10;;;;;;5058119;28;19932;-77
2022/04/04 07:50:08;;;;;;;;;;;1.50;80.20;;;;;;5058374;28;19932;-77
2022/04/04 07:52:35;;;;;;;;;;;1.50;80.20;;;;;;5055576;28;19972;-77
2022/04/04 07:55:01;;;;;;;;;;;1.60;80.40;;;;;;5059280;28;19935;-77
2022/04/04 07:57:29;;;;;;;;;;;1.60;80.40;;;;;;5055536;28;19928;-77
2022/04/04 07:59:56;;;;;;;;;;;1.60;80.40;;;;;;5052444;28;19933;-76
2022/04/04 08:02:22;;;;;;;;;;;1.60;80.50;;;;;;5051294;28;19935;-77
2022/04/04 08:04:49;;;;;;;;;;;1.70;80.60;;;;;;5054826;28;20396;-77
2022/04/04 08:07:19;;;;;;;;;;;1.70;80.50;;;;;;5055159;28;19933;-77
2022/04/04 08:09:46;;;;;;;;;;;1.70;80.60;;;;;;5053560;28;20136;-77
2022/04/04 08:12:13;;;;;;;;;;;1.70;80.50;;;;;;5057182;28;20484;-77
2022/04/04 08:14:41;;;;;;;;;;;1.70;80.50;;;;;;5053656;28;20404;-77
2022/04/04 08:17:08;;;;;;;;;;;1.70;81.10;;;;;;5058113;28;20506;-77
2022/04/04 08:19:35;;;;;;;;;;;1.80;80.40;;;;;;5057889;28;19952;-77
2022/04/04 08:22:02;;;;;;;;;;;1.80;80.30;;;;;;5053253;28;20019;-77
2022/04/04 08:24:30;;;;;;;;;;;1.90;80.30;;;;;;5059282;28;19932;-77
2022/04/04 08:26:56;;;;;;;;;;;1.90;80.10;;;;;;5048561;28;19929;-77
2022/04/04 08:29:23;;;;;;;;;;;1.90;80.00;;;;;;5052326;28;19971;-77
2022/04/04 08:31:51;;;;;;;;;;;2.00;80.10;;;;;;5052983;28;20261;-77
2022/04/04 08:34:17;;;;;;;;;;;2.00;80.10;;;;;;5049923;28;19934;-77
2022/04/04 08:36:44;;;;;;;;;;;2.00;79.70;;;;;;5056953;28;19929;-78
2022/04/04 08:39:11;;;;;;;;;;;2.00;79.50;;;;;;5052529;28;19928;-77
2022/04/04 08:41:38;;;;;;;;;;;2.10;79.40;;;;;;5057723;28;19986;-78
2022/04/04 08:44:05;;;;;;;;;;;2.20;79.40;;;;;;5059024;28;19928;-78
2022/04/04 08:46:34;;;;;;;;;;;2.20;79.40;;;;;;5053932;28;19935;-78
2022/04/04 08:49:04;;;;;;;;;;;2.30;79.10;;;;;;5058303;28;20049;-77
2022/04/04 08:51:31;;;;;;;;;;;2.30;78.60;;;;;;5056728;28;19936;-78
2022/04/04 08:53:57;;;;;;;;;;;2.40;78.60;;;;;;5057415;28;20465;-78
2022/04/04 08:56:24;;;;;;;;;;;2.40;78.60;;;;;;5060505;28;19929;-78
2022/04/04 08:58:51;;;;;;;;;;;2.50;78.80;;;;;;5060084;28;19935;-77
2022/04/04 09:01:19;;;;;;;;;;;2.60;78.80;;;;;;5061662;28;19978;-78
2022/04/04 09:03:46;;;;;;;;;;;2.60;78.70;;;;;;5062170;28;19932;-78
2022/04/04 09:06:13;;;;;;;;;;;2.70;78.10;;;;;;5060322;28;20392;-77
2022/04/04 09:08:44;;;;;;;;;;;2.80;77.90;;;;;;5055784;28;20422;-78
2022/04/04 09:11:11;;;;;;;;;;;2.80;77.40;;;;;;5061534;28;19975;-78
2022/04/04 09:13:37;;;;;;;;;;;2.90;77.30;;;;;;5059469;28;20889;-78
2022/04/04 09:16:05;;;;;;;;;;;2.90;76.70;;;;;;5067036;28;20289;-78
2022/04/04 09:18:42;;;;;;;;;;;2.90;76.70;;;;;;5062983;28;19929;-77
2022/04/04 09:21:09;;;;;;;;;;;3.00;76.50;;;;;;5060049;28;19928;-78
2022/04/04 09:23:51;;;;;;;;;;;3.10;76.60;;;;;;5060734;28;20379;-77
2022/04/04 09:26:26;;;;;;;;;;;3.10;76.70;;;;;;5057533;28;19940;-78
2022/04/04 09:28:52;;;;;;;;;;;3.20;76.80;;;;;;5061301;28;19928;-78
2022/04/04 09:31:19;;;;;;;;;;;3.30;76.60;;;;;;5062931;28;19928;-77
2022/04/04 09:33:45;;;;;;;;;;;3.30;75.80;;;;;;5059919;28;19939;-78
2022/04/04 09:36:12;;;;;;;;;;;3.30;75.60;;;;;;5053119;28;19928;-78
2022/04/04 09:38:43;;;;;;;;;;;3.40;75.60;;;;;;5057226;28;19929;-77
2022/04/04 09:41:19;;;;;;;;;;;3.50;75.50;;;;;;5060338;28;19932;-78
2022/04/04 09:43:50;;;;;;;;;;;3.50;75.60;;;;;;5061585;28;19928;-77
2022/04/04 09:46:16;;;;;;;;;;;3.50;75.40;;;;;;5061197;28;19988;-77
2022/04/04 09:48:58;;;;;;;;;;;3.60;74.30;;;;;;5045863;28;20411;-78
2022/04/04 09:51:34;;;;;;;;;;;3.70;74.20;;;;;;5059243;28;19935;-77
2022/04/04 09:54:03;;;;;;;;;;;3.80;73.20;;;;;;5057155;28;19935;-77
2022/04/04 09:56:29;;;;;;;;;;;3.80;72.60;;;;;;5064984;28;20019;-78
2022/04/04 09:58:57;;;;;;;;;;;3.90;72.30;;;;;;5055700;28;19959;-78
2022/04/04 10:01:24;;;;;;;;;;;3.90;73.10;;;;;;5060047;28;19929;-77
2022/04/04 10:03:52;;;;;;;;;;;4.00;72.10;;;;;;5057412;28;20418;-78
2022/04/04 10:06:19;;;;;;;;;;;4.10;72.00;;;;;;5058214;28;20016;-78
2022/04/04 10:08:46;;;;;;;;;;;4.10;72.90;;;;;;5057168;28;19928;-78
2022/04/04 10:11:14;;;;;;;;;;;4.20;73.30;;;;;;5059610;28;19935;-78
2022/04/04 10:13:42;;;;;;;;;;;4.20;72.40;;;;;;5055982;28;19932;-78
2022/04/04 10:16:09;;;;;;;;;;;4.30;71.80;;;;;;5055468;28;19935;-78
2022/04/04 10:18:36;;;;;;;;;;;4.40;71.60;;;;;;5050297;28;20246;-78
2022/04/04 10:21:03;;;;;;;;;;;4.40;70.90;;;;;;5049692;28;19973;-78
2022/04/04 10:23:30;;;;;;;;;;;4.50;70.50;;;;;;5051844;28;20442;-77
2022/04/04 10:25:58;;;;;;;;;;;4.60;70.20;;;;;;5054279;28;19952;-77
2022/04/04 10:28:29;;;;;;;;;;;4.60;69.80;;;;;;5051638;28;20027;-78
2022/04/04 10:30:58;;;;;;;;;;;4.70;70.30;;;;;;5054013;28;19935;-77
2022/04/04 10:33:25;;;;;;;;;;;4.80;70.50;;;;;;5055295;28;20230;-76
2022/04/04 10:36:01;;;;;;;;;;;4.80;70.40;;;;;;5054671;28;19925;-78
2022/04/04 10:38:31;;;;;;;;;;;4.90;69.50;;;;;;5052340;28;20320;-78
2022/04/04 10:40:59;;;;;;;;;;;5.00;70.30;;;;;;5060958;28;19932;-78
2022/04/04 10:43:25;;;;;;;;;;;5.00;70.90;;;;;;5057499;28;19968;-77
2022/04/04 10:45:57;;;;;;;;;;;5.10;69.90;;;;;;5052618;28;19928;-78
2022/04/04 10:48:28;;;;;;;;;;;5.10;69.70;;;;;;5053084;28;19988;-78
2022/04/04 10:50:54;;;;;;;;;;;5.20;69.20;;;;;;5048131;28;19932;-77
2022/04/04 10:53:36;;;;;;;;;;;5.30;68.70;;;;;;5052924;28;20027;-78
2022/04/04 10:56:04;;;;;;;;;;;5.30;69.20;;;;;;5053865;28;19928;-78
2022/04/04 10:58:31;;;;;;;;;;;5.40;69.10;;;;;;5051868;28;19929;-78
2022/04/04 11:01:05;;;;;;;;;;;5.40;68.90;;;;;;5057947;28;19936;-78
2022/04/04 11:03:32;;;;;;;;;;;5.50;68.20;;;;;;5052789;28;19935;-78
2022/04/04 11:09:01;;;;;;;;;;;5.60;68.80;;;;;;5050375;28;19932;-78
2022/04/04 11:11:43;;;;;;;;;;;5.70;68.80;;;;;;5056571;28;19936;-78
2022/04/04 11:14:10;;;;;;;;;;;5.80;67.60;;;;;;5052362;28;19935;-78
2022/04/04 11:16:54;;;;;;;;;;;5.90;67.20;;;;;;5052563;28;19928;-78
2022/04/04 11:19:22;;;;;;;;;;;5.90;66.30;;;;;;5050631;28;19936;-77
2022/04/04 11:21:49;;;;;;;;;;;6.00;65.70;;;;;;5051577;28;19956;-78
2022/04/04 11:24:17;;;;;;;;;;;6.10;65.60;;;;;;5052702;28;19928;-78
2022/04/04 11:26:47;;;;;;;;;;;6.20;65.30;;;;;;5046236;28;19928;-78
2022/04/04 11:29:19;;;;;;;;;;;6.20;65.20;;;;;;5056716;28;19943;-78
2022/04/04 11:31:49;;;;;;;;;;;6.20;66.00;;;;;;5052942;28;19963;-78
2022/04/04 11:34:15;;;;;;;;;;;6.30;66.30;;;;;;5053064;28;19928;-77
2022/04/04 11:36:44;;;;;;;;;;;6.30;65.60;;;;;;5052348;28;19935;-78
2022/04/04 11:39:11;;;;;;;;;;;6.40;66.00;;;;;;5057032;28;20006;-78
2022/04/04 11:41:46;;;;;;;;;;;6.40;65.20;;;;;;5054420;28;20741;-78
2022/04/04 11:44:24;;;;;;;;;;;6.50;65.90;;;;;;5051443;28;19939;-78
2022/04/04 11:47:02;;;;;;;;;;;6.40;66.00;;;;;;5048563;28;20006;-78
2022/04/04 11:49:32;;;;;;;;;;;6.50;66.10;;;;;;5055071;28;19970;-78
2022/04/04 11:52:04;;;;;;;;;;;6.50;65.00;;;;;;5058327;28;19929;-77
2022/04/04 11:54:39;;;;;;;;;;;6.50;64.60;;;;;;5057401;28;20293;-78
2022/04/04 11:57:06;;;;;;;;;;;6.50;64.50;;;;;;5055872;28;19935;-78
2022/04/04 11:59:34;;;;;;;;;;;6.60;65.50;;;;;;5049466;28;19935;-78
2022/04/04 12:02:03;;;;;;;;;;;6.70;65.60;;;;;;5054737;28;20005;-78
2022/04/04 12:04:30;;;;;;;;;;;6.70;65.50;;;;;;5055300;28;20140;-78
2022/04/04 12:06:56;;;;;;;;;;;6.80;65.30;;;;;;5052298;28;19933;-78
2022/04/04 12:09:31;;;;;;;;;;;6.80;64.90;;;;;;5056270;28;19932;-78
2022/04/04 12:12:01;;;;;;;;;;;6.90;65.30;;;;;;5054492;28;19932;-78
2022/04/04 12:14:31;;;;;;;;;;;6.90;65.10;;;;;;5053355;28;19940;-78
2022/04/04 12:16:58;;;;;;;;;;;7.00;64.10;;;;;;5051942;28;20197;-78
2022/04/04 12:19:25;;;;;;;;;;;7.10;65.00;;;;;;5053501;28;19935;-78
2022/04/04 12:21:52;;;;;;;;;;;7.10;63.90;;;;;;5052349;28;19936;-78
2022/04/04 12:27:13;;;;;;;;;;;7.30;63.00;;;;;;5050461;28;19932;-78
2022/04/04 12:29:41;;;;;;;;;;;7.30;64.00;;;;;;5049726;28;19928;-77
2022/04/04 12:32:14;;;;;;;;;;;7.40;64.00;;;;;;5055092;28;19939;-78
2022/04/04 12:34:41;;;;;;;;;;;7.50;63.10;;;;;;5048281;28;20647;-77
2022/04/04 12:37:09;;;;;;;;;;;7.50;62.20;;;;;;5052408;28;20324;-78
2022/04/04 12:39:35;;;;;;;;;;;7.60;62.70;;;;;;5044765;28;19936;-78
2022/04/04 12:42:06;;;;;;;;;;;7.60;61.50;;;;;;5051492;28;19928;-77
2022/04/04 12:44:34;;;;;;;;;;;7.60;61.20;;;;;;5046625;28;19939;-78
2022/04/04 12:47:05;;;;;;;;;;;7.70;61.50;;;;;;5053170;28;20086;-78
2022/04/04 12:49:31;;;;;;;;;;;7.80;60.20;;;;;;5044773;28;19928;-78
2022/04/04 12:51:59;;;;;;;;;;;7.80;60.50;;;;;;5052796;28;19939;-78
2022/04/04 12:54:26;;;;;;;;;;;7.80;60.30;;;;;;5054933;28;20032;-78
2022/04/04 12:56:53;;;;;;;;;;;7.90;59.60;;;;;;5049231;28;20016;-78
2022/04/04 12:59:20;;;;;;;;;;;8.00;58.40;;;;;;5044480;28;20132;-78
2022/04/04 13:02:01;;;;;;;;;;;8.00;59.30;;;;;;5050638;28;19936;-77
2022/04/04 13:04:30;;;;;;;;;;;8.00;58.50;;;;;;5048061;28;19933;-78
2022/04/04 13:06:57;;;;;;;;;;;8.10;58.60;;;;;;5051305;28;19929;-78
2022/04/04 13:09:24;;;;;;;;;;;8.20;59.50;;;;;;5046198;28;20436;-78
2022/04/04 13:11:52;;;;;;;;;;;8.20;59.50;;;;;;5051502;28;19974;-78
2022/04/04 13:14:20;;;;;;;;;;;8.20;60.00;;;;;;5046799;28;20029;-78
2022/04/04 13:16:50;;;;;;;;;;;8.20;60.80;;;;;;5052945;28;19936;-78
2022/04/04 13:19:17;;;;;;;;;;;8.30;58.60;;;;;;5054495;28;20782;-78
2022/04/04 13:21:48;;;;;;;;;;;8.40;59.60;;;;;;5051606;28;19951;-78
2022/04/04 13:24:15;;;;;;;;;;;8.40;60.10;;;;;;5055618;28;20475;-78
2022/04/04 13:26:42;;;;;;;;;;;8.40;59.50;;;;;;5054678;28;20034;-78
2022/04/04 13:29:09;;;;;;;;;;;8.40;58.50;;;;;;5055372;28;19939;-78
2022/04/04 13:31:36;;;;;;;;;;;8.50;59.10;;;;;;5054560;28;19968;-78
2022/04/04 13:34:02;;;;;;;;;;;8.60;59.40;;;;;;5046341;28;19944;-78
2022/04/04 13:36:29;;;;;;;;;;;8.60;59.60;;;;;;5049941;28;20870;-78
2022/04/04 13:38:58;;;;;;;;;;;8.60;59.30;;;;;;5050816;28;19940;-82
2022/04/04 13:41:26;;;;;;;;;;;8.60;59.30;;;;;;5057987;28;20694;-82
2022/04/04 13:43:53;;;;;;;;;;;8.70;59.00;;;;;;5056626;28;19960;-82
2022/04/04 13:46:19;;;;;;;;;;;8.70;59.00;;;;;;5063675;28;20397;-81
2022/04/04 13:48:47;;;;;;;;;;;8.70;58.40;;;;;;5056335;28;19925;-82
2022/04/04 13:51:18;;;;;;;;;;;8.80;58.60;;;;;;5050034;28;19934;-82
2022/04/04 13:53:45;;;;;;;;;;;8.80;58.60;;;;;;5053688;28;19929;-81
2022/04/04 13:56:13;;;;;;;;;;;8.80;58.30;;;;;;5050306;28;19928;-82
2022/04/04 13:58:41;;;;;;;;;;;8.80;58.20;;;;;;5053430;28;19933;-82
2022/04/04 14:01:07;;;;;;;;;;;8.80;58.10;;;;;;5053142;28;19932;-82
2022/04/04 14:03:34;;;;;;;;;;;8.80;58.20;;;;;;5060234;28;19928;-82
2022/04/04 14:06:00;;;;;;;;;;;8.90;57.60;;;;;;5058500;28;19933;-82
2022/04/04 14:08:27;;;;;;;;;;;8.80;56.70;;;;;;5061346;28;19936;-81
2022/04/04 14:10:54;;;;;;;;;;;8.80;56.90;;;;;;5055140;28;19928;-80
2022/04/04 14:13:22;;;;;;;;;;;8.80;57.30;;;;;;5055286;28;19934;-79
2022/04/04 14:15:50;;;;;;;;;;;8.80;57.30;;;;;;5054203;28;19939;-79
2022/04/04 14:18:17;;;;;;;;;;;8.80;57.90;;;;;;5061104;28;20019;-79
2022/04/04 14:20:43;;;;;;;;;;;8.80;58.20;;;;;;5059615;28;19936;-79
2022/04/04 14:23:10;;;;;;;;;;;8.80;58.30;;;;;;5059149;28;19932;-79
2022/04/04 14:25:37;;;;;;;;;;;8.80;58.40;;;;;;5059705;28;19929;-79
2022/04/04 14:28:03;;;;;;;;;;;8.80;58.50;;;;;;5054023;28;19932;-79
2022/04/04 14:30:31;;;;;;;;;;;8.80;58.60;;;;;;5056794;28;19962;-79
2022/04/04 14:32:58;;;;;;;;;;;8.80;57.90;;;;;;5054960;28;19928;-79
2022/04/04 14:35:25;;;;;;;;;;;8.80;58.10;;;;;;5053396;28;19964;-80
2022/04/04 14:37:53;;;;;;;;;;;8.80;58.00;;;;;;5053529;28;20332;-80
2022/04/04 14:40:20;;;;;;;;;;;8.80;57.90;;;;;;5055527;28;19932;-79
2022/04/04 14:42:46;;;;;;;;;;;8.80;58.00;;;;;;5057379;28;19982;-79